Terminal Aerodrome Forecast
Issued by NWS

Home | Current Version | Previous Version | Graphics & Text | Print | Product List | Glossary On
Versions: 1 2 3 4 5 6 7 8 9 10 11 12 13 14 15 16 17 18 19 20 21 22
000
FTUS43 KGRB 211131
TAFCWA
TAF
KCWA 211131Z 2112/2212 10006KT P6SM BKN080
     FM211700 11008KT P6SM -SHRA OVC040
     FM211900 11008KT P6SM -SHRA OVC025
     FM212100 10007KT P6SM -SHRA OVC011
     FM220200 07003KT 4SM BR OVC006=

USA.gov is the U.S. government's official web portal to all federal, state and local government web resources and services.